Time;durP1;ratioP1;P1;durP2;ratioP2;P2;SDS_P1;SDS_P2;PMS_P1;PMS_P2;Temp;Humidity;BMP_temperature;BMP_pressure;BME280_temperature;BME280_humidity;BME280_pressure;Samples;Min_cycle;Max_cycle;Signal;HPM_P1;HPM_P2
2022/03/22 00:00:08;;;;;;;60.38;41.65;;;7.20;99.90;;;;;;5054863;28;20040;-78
2022/03/22 00:02:34;;;;;;;55.75;42.17;;;7.20;99.90;;;;;;5072039;28;20507;-78
2022/03/22 00:04:59;;;;;;;50.60;36.70;;;7.20;99.90;;;;;;5071736;28;20040;-78
2022/03/22 00:07:27;;;;;;;49.05;36.17;;;7.10;99.90;;;;;;5067132;28;20047;-78
2022/03/22 00:09:53;;;;;;;47.03;34.92;;;7.10;99.90;;;;;;5091124;28;20165;-78
2022/03/22 00:12:19;;;;;;;48.30;36.35;;;7.10;99.90;;;;;;5075057;28;20040;-78
2022/03/22 00:14:45;;;;;;;50.15;38.58;;;7.10;99.90;;;;;;5091533;28;20044;-78
2022/03/22 00:17:12;;;;;;;53.00;39.28;;;7.10;99.90;;;;;;5091688;28;20055;-78
2022/03/22 00:19:37;;;;;;;55.72;38.90;;;7.10;99.90;;;;;;5091621;28;20048;-78
2022/03/22 00:22:03;;;;;;;50.47;35.90;;;7.10;99.90;;;;;;5092001;28;20047;-78
2022/03/22 00:24:30;;;;;;;48.75;36.17;;;7.10;99.90;;;;;;5086567;28;20037;-78
2022/03/22 00:26:56;;;;;;;46.38;35.42;;;7.10;99.90;;;;;;5071405;28;20080;-78
2022/03/22 00:29:22;;;;;;;51.45;38.45;;;7.10;99.90;;;;;;5054879;28;20076;-78
2022/03/22 00:31:48;;;;;;;49.42;36.58;;;7.10;99.90;;;;;;5071448;28;20036;-78
2022/03/22 00:34:13;;;;;;;50.35;37.90;;;7.10;99.90;;;;;;5071251;28;20547;-78
2022/03/22 00:36:40;;;;;;;49.83;36.33;;;7.10;99.90;;;;;;5071567;28;20036;-78
2022/03/22 00:39:06;;;;;;;46.88;34.40;;;7.10;99.90;;;;;;5070447;28;20079;-78
2022/03/22 00:41:32;;;;;;;61.30;45.13;;;7.00;99.90;;;;;;5071407;28;20068;-78
2022/03/22 00:43:57;;;;;;;48.47;36.95;;;6.90;99.90;;;;;;5054461;28;20480;-78
2022/03/22 00:46:23;;;;;;;54.30;38.70;;;6.80;99.90;;;;;;5071276;28;20044;-78
2022/03/22 00:48:49;;;;;;;49.25;36.67;;;6.80;99.90;;;;;;5056612;28;20113;-78
2022/03/22 00:51:15;;;;;;;51.33;37.72;;;6.80;99.90;;;;;;5058663;28;20115;-78
2022/03/22 00:53:41;;;;;;;44.00;34.08;;;6.80;99.90;;;;;;5057640;28;20060;-78
2022/03/22 00:56:08;;;;;;;46.08;34.88;;;6.80;99.90;;;;;;5075125;28;20041;-78
2022/03/22 00:58:34;;;;;;;47.13;35.45;;;6.80;99.90;;;;;;5074778;28;20052;-78
2022/03/22 01:01:01;;;;;;;45.28;35.35;;;6.70;99.90;;;;;;5074881;28;20045;-78
2022/03/22 01:03:28;;;;;;;49.88;37.17;;;6.60;99.90;;;;;;5074734;28;20043;-78
2022/03/22 01:05:55;;;;;;;43.55;34.70;;;6.60;99.90;;;;;;5058258;28;20132;-78
2022/03/22 01:08:23;;;;;;;43.53;34.13;;;6.60;99.90;;;;;;5073958;28;20104;-78
2022/03/22 01:10:52;;;;;;;45.47;33.92;;;6.70;99.90;;;;;;5075053;28;20407;-78
2022/03/22 01:13:22;;;;;;;45.80;34.92;;;6.70;99.90;;;;;;5075205;28;20404;-78
2022/03/22 01:15:49;;;;;;;46.50;35.55;;;6.70;99.90;;;;;;5074654;28;20044;-78
2022/03/22 01:18:15;;;;;;;57.42;42.17;;;6.70;99.90;;;;;;5074426;28;20613;-78
2022/03/22 01:20:43;;;;;;;43.35;34.05;;;6.70;99.90;;;;;;5074726;28;20483;-78
2022/03/22 01:23:10;;;;;;;44.42;32.95;;;6.60;99.90;;;;;;5058203;28;20048;-78
2022/03/22 01:25:37;;;;;;;49.10;36.38;;;6.60;99.90;;;;;;5073638;28;20186;-78
2022/03/22 01:28:05;;;;;;;45.30;34.45;;;6.50;99.90;;;;;;5074785;28;20395;-78
2022/03/22 01:30:32;;;;;;;53.33;39.22;;;6.50;99.90;;;;;;5074208;28;20044;-78
2022/03/22 01:32:58;;;;;;;50.85;39.30;;;6.50;99.90;;;;;;5074350;28;20040;-78
2022/03/22 01:35:25;;;;;;;45.95;35.83;;;6.50;99.90;;;;;;5074102;28;20403;-78
2022/03/22 01:37:55;;;;;;;42.70;34.00;;;6.40;99.90;;;;;;5074326;28;20045;-78
2022/03/22 01:40:24;;;;;;;51.83;39.95;;;6.40;99.90;;;;;;5073682;28;20086;-78
2022/03/22 01:42:51;;;;;;;52.00;39.17;;;6.40;99.90;;;;;;5074175;28;20033;-78
2022/03/22 01:45:17;;;;;;;51.25;39.97;;;6.40;99.90;;;;;;5074086;28;20381;-78
2022/03/22 01:47:44;;;;;;;52.88;40.22;;;6.30;99.90;;;;;;5057498;28;20043;-78
2022/03/22 01:50:12;;;;;;;53.92;40.83;;;6.30;99.90;;;;;;5073812;28;20469;-78
2022/03/22 01:52:40;;;;;;;53.28;39.10;;;6.20;99.90;;;;;;5073875;28;20040;-78
2022/03/22 01:55:11;;;;;;;49.85;38.53;;;6.20;99.90;;;;;;5056845;28;20037;-78
2022/03/22 01:57:37;;;;;;;48.97;38.30;;;6.20;99.90;;;;;;5073774;28;20484;-78
2022/03/22 02:00:09;;;;;;;48.15;37.53;;;6.30;99.90;;;;;;5056530;28;20043;-78
2022/03/22 02:08:11;;;;;;;50.88;37.35;;;6.20;99.90;;;;;;5073950;28;20040;-77
2022/03/22 02:10:37;;;;;;;55.22;41.67;;;6.00;99.90;;;;;;5071669;28;20044;-77
2022/03/22 02:13:04;;;;;;;45.35;34.33;;;6.00;99.90;;;;;;5040184;28;20051;-77
2022/03/22 02:15:29;;;;;;;45.78;34.90;;;6.00;99.90;;;;;;5056477;28;20044;-77
2022/03/22 02:17:56;;;;;;;50.65;38.17;;;6.00;99.90;;;;;;5073228;28;20051;-77
2022/03/22 02:20:21;;;;;;;54.28;42.10;;;6.00;99.90;;;;;;5073207;28;20044;-77
2022/03/22 02:22:53;;;;;;;53.35;41.08;;;6.00;99.90;;;;;;5073478;28;20453;-77
2022/03/22 02:25:19;;;;;;;53.17;39.90;;;6.00;99.90;;;;;;5072363;28;20093;-77
2022/03/22 02:27:47;;;;;;;54.15;40.60;;;6.00;99.90;;;;;;5073224;28;20126;-77
2022/03/22 02:30:14;;;;;;;47.13;37.75;;;5.90;99.90;;;;;;5056386;28;20033;-77
2022/03/22 02:32:47;;;;;;;48.67;37.53;;;5.90;99.90;;;;;;5073194;28;20047;-77
2022/03/22 02:35:13;;;;;;;47.45;37.40;;;6.00;99.90;;;;;;5081739;28;20059;-77
2022/03/22 02:37:39;;;;;;;46.60;34.50;;;6.10;99.90;;;;;;5093611;28;20036;-77
2022/03/22 02:40:07;;;;;;;45.55;34.10;;;6.00;99.90;;;;;;5092328;28;20043;-77
2022/03/22 02:42:33;;;;;;;44.30;33.45;;;6.00;99.90;;;;;;5093318;28;20036;-77
2022/03/22 02:44:59;;;;;;;42.35;32.83;;;6.00;99.90;;;;;;5076120;28;20043;-77
2022/03/22 02:47:24;;;;;;;47.05;35.17;;;6.00;99.90;;;;;;5093143;28;20460;-77
2022/03/22 02:49:50;;;;;;;42.95;33.33;;;6.00;99.90;;;;;;5092901;28;20403;-77
2022/03/22 02:52:16;;;;;;;41.67;32.88;;;6.00;99.90;;;;;;5076518;28;20050;-77
2022/03/22 02:54:42;;;;;;;44.25;34.00;;;6.00;99.90;;;;;;5091968;28;20119;-77
2022/03/22 02:57:07;;;;;;;42.70;33.35;;;6.00;99.90;;;;;;5076278;28;20426;-77
2022/03/22 02:59:33;;;;;;;42.78;33.30;;;6.00;99.90;;;;;;5075747;28;20451;-77
2022/03/22 03:02:00;;;;;;;43.78;33.40;;;6.00;99.90;;;;;;5093228;28;20066;-77
2022/03/22 03:04:26;;;;;;;43.05;34.10;;;6.00;99.90;;;;;;5092668;28;20051;-77
2022/03/22 03:06:52;;;;;;;45.63;35.20;;;6.00;99.90;;;;;;5093083;28;20039;-77
2022/03/22 03:09:18;;;;;;;45.83;35.63;;;6.00;99.90;;;;;;5091795;28;20048;-77
2022/03/22 03:11:43;;;;;;;42.22;33.58;;;6.00;99.90;;;;;;5091943;28;20135;-77
2022/03/22 03:16:54;;;;;;;46.33;34.53;;;6.00;99.90;;;;;;5063865;28;20055;-77
2022/03/22 03:19:19;;;;;;;45.33;35.03;;;6.00;99.90;;;;;;5092368;28;20040;-77
2022/03/22 03:21:45;;;;;;;43.58;34.00;;;6.00;99.90;;;;;;5092733;28;20392;-77
2022/03/22 03:24:11;;;;;;;40.85;32.25;;;5.90;99.90;;;;;;5035227;28;20044;-77
2022/03/22 03:26:36;;;;;;;44.30;33.58;;;5.90;99.90;;;;;;5072444;28;20037;-77
2022/03/22 03:29:02;;;;;;;41.72;33.55;;;5.90;99.90;;;;;;5072125;28;20047;-77
2022/03/22 03:31:28;;;;;;;46.65;35.78;;;5.90;99.90;;;;;;5072414;28;20044;-77
2022/03/22 03:33:54;;;;;;;47.95;36.45;;;5.80;99.90;;;;;;5055207;28;20071;-77
2022/03/22 03:36:20;;;;;;;49.80;36.80;;;5.80;99.90;;;;;;5022582;28;20051;-77
2022/03/22 03:38:46;;;;;;;41.78;33.05;;;5.90;99.90;;;;;;5071339;28;20033;-77
2022/03/22 03:43:57;;;;;;;41.42;33.65;;;5.70;99.90;;;;;;5072136;28;20442;-77
2022/03/22 03:49:08;;;;;;;43.72;33.85;;;5.70;99.90;;;;;;5072103;28;20566;-77
2022/03/22 03:51:35;;;;;;;41.75;32.22;;;5.70;99.90;;;;;;5055391;28;20201;-77
2022/03/22 03:54:03;;;;;;;46.10;35.85;;;5.70;99.90;;;;;;5070976;28;20048;-77
2022/03/22 03:56:28;;;;;;;41.97;33.15;;;5.70;99.90;;;;;;5055081;28;20044;-77
2022/03/22 03:58:57;;;;;;;42.50;33.20;;;5.70;99.90;;;;;;5071918;28;20444;-77
2022/03/22 04:01:24;;;;;;;47.10;36.42;;;5.70;99.90;;;;;;5071804;28;20037;-77
2022/03/22 04:03:49;;;;;;;46.42;36.63;;;5.70;99.90;;;;;;5071718;28;20368;-77
2022/03/22 04:06:15;;;;;;;41.67;32.22;;;5.70;99.90;;;;;;5071743;28;20097;-77
2022/03/22 04:08:41;;;;;;;42.22;32.88;;;5.60;99.90;;;;;;5021225;28;20044;-77
2022/03/22 04:11:07;;;;;;;44.35;33.92;;;5.60;99.90;;;;;;5071636;28;20050;-77
2022/03/22 04:13:32;;;;;;;44.58;33.72;;;5.60;99.90;;;;;;5071321;28;20079;-77
2022/03/22 04:15:58;;;;;;;39.67;32.90;;;5.60;99.90;;;;;;5071869;28;20040;-77
2022/03/22 04:18:24;;;;;;;44.60;33.70;;;5.60;99.90;;;;;;5038044;28;20056;-77
2022/03/22 04:20:51;;;;;;;44.45;33.78;;;5.60;99.90;;;;;;5071567;28;20396;-77
2022/03/22 04:23:16;;;;;;;40.72;32.03;;;5.60;99.90;;;;;;5057497;28;20040;-77
2022/03/22 04:25:42;;;;;;;42.97;34.45;;;5.60;99.90;;;;;;5075177;28;20040;-77
2022/03/22 04:33:36;;;;;;;43.65;33.72;;;5.70;99.90;;;;;;5061129;28;20044;-77
2022/03/22 04:36:02;;;;;;;40.25;32.20;;;5.60;99.90;;;;;;5075427;28;20124;-77
2022/03/22 04:38:28;;;;;;;38.95;31.58;;;5.50;99.90;;;;;;5024851;28;20053;-77
2022/03/22 04:40:54;;;;;;;38.47;30.58;;;5.50;99.90;;;;;;5075659;28;20602;-77
2022/03/22 04:43:20;;;;;;;39.03;31.73;;;5.40;99.90;;;;;;5075170;28;20075;-77
2022/03/22 04:45:45;;;;;;;40.92;31.60;;;5.40;99.90;;;;;;5058631;28;20123;-77
2022/03/22 04:48:11;;;;;;;40.10;32.30;;;5.40;99.90;;;;;;5075523;28;20478;-77
2022/03/22 04:50:37;;;;;;;39.83;31.55;;;5.40;99.90;;;;;;5074934;28;20048;-77
2022/03/22 04:56:43;;;;;;;39.55;31.52;;;5.40;99.90;;;;;;5075389;28;20055;-77
2022/03/22 04:58:35;;;;;;;46.40;34.17;;;5.40;99.90;;;;;;5091832;28;20086;-77
2022/03/22 05:01:03;;;;;;;41.55;33.13;;;5.40;99.90;;;;;;5075230;28;20076;-77
2022/03/22 05:03:29;;;;;;;46.22;36.53;;;5.40;99.90;;;;;;5075038;28;20043;-77
2022/03/22 05:08:39;;;;;;;46.45;36.35;;;5.30;99.90;;;;;;5073904;28;20067;-77
2022/03/22 05:11:05;;;;;;;50.17;37.35;;;5.20;99.90;;;;;;5075017;28;20041;-77
2022/03/22 05:13:31;;;;;;;45.83;35.80;;;5.20;99.90;;;;;;5057997;28;20037;-77
2022/03/22 05:15:56;;;;;;;44.95;34.30;;;5.10;99.90;;;;;;5074931;28;20090;-77
2022/03/22 05:18:23;;;;;;;43.75;33.92;;;5.10;99.90;;;;;;5074242;28;20086;-77
2022/03/22 05:20:48;;;;;;;40.90;32.10;;;5.10;99.90;;;;;;5074805;28;20041;-77
2022/03/22 05:23:17;;;;;;;46.75;35.03;;;5.10;99.90;;;;;;5074617;28;20037;-77
2022/03/22 05:25:43;;;;;;;50.10;37.50;;;5.20;99.90;;;;;;5074010;28;20094;-77
2022/03/22 05:28:09;;;;;;;44.85;33.67;;;5.20;99.90;;;;;;5074564;28;20048;-77
2022/03/22 05:30:34;;;;;;;38.72;31.73;;;5.20;99.90;;;;;;5074196;28;20041;-77
2022/03/22 05:33:00;;;;;;;40.70;32.08;;;5.20;99.90;;;;;;5074405;28;20047;-77
2022/03/22 05:35:27;;;;;;;42.70;32.08;;;5.20;99.90;;;;;;5076602;28;20044;-77
2022/03/22 05:37:52;;;;;;;39.17;31.63;;;5.10;99.90;;;;;;5078094;28;20402;-77
2022/03/22 05:40:19;;;;;;;40.03;31.58;;;5.10;99.90;;;;;;5093953;28;20043;-77
2022/03/22 05:42:45;;;;;;;44.90;35.40;;;5.10;99.90;;;;;;5078109;28;20400;-77
2022/03/22 05:45:12;;;;;;;41.22;31.73;;;5.10;99.90;;;;;;5094209;28;20036;-77
2022/03/22 05:47:39;;;;;;;45.20;34.78;;;5.10;99.90;;;;;;5094425;28;20036;-77
2022/03/22 05:50:05;;;;;;;42.92;34.03;;;5.20;99.90;;;;;;5077442;28;20101;-77
2022/03/22 05:52:32;;;;;;;41.38;32.80;;;5.20;99.90;;;;;;5094235;28;20048;-77
2022/03/22 05:54:58;;;;;;;40.75;32.60;;;5.20;99.90;;;;;;5093282;28;20538;-77
2022/03/22 05:57:23;;;;;;;42.83;33.22;;;5.20;99.90;;;;;;5094234;28;20119;-77
2022/03/22 05:59:49;;;;;;;43.28;32.05;;;5.20;99.90;;;;;;5093717;28;20548;-77
2022/03/22 06:02:15;;;;;;;40.00;31.60;;;5.10;99.90;;;;;;5077475;28;20089;-77
2022/03/22 06:04:41;;;;;;;38.40;30.52;;;5.10;99.90;;;;;;5077065;28;20126;-77
2022/03/22 06:07:08;;;;;;;42.38;32.58;;;5.10;99.90;;;;;;5094019;28;20036;-77
2022/03/22 06:09:33;;;;;;;43.42;33.08;;;5.20;99.90;;;;;;5093165;28;20048;-77
2022/03/22 06:11:59;;;;;;;45.90;35.00;;;5.20;99.90;;;;;;5094110;28;20184;-78
2022/03/22 06:14:25;;;;;;;49.45;35.45;;;5.30;99.90;;;;;;5085719;28;20041;-78
2022/03/22 06:16:51;;;;;;;46.65;34.60;;;5.50;99.90;;;;;;5073434;28;20529;-79
2022/03/22 06:19:16;;;;;;;45.13;32.95;;;5.50;99.90;;;;;;5064003;28;20186;-78
2022/03/22 06:21:42;;;;;;;45.35;33.47;;;5.60;99.90;;;;;;5079929;28;20076;-79
2022/03/22 06:24:08;;;;;;;44.22;32.20;;;5.80;99.90;;;;;;5057500;28;20044;-80
2022/03/22 06:26:34;;;;;;;46.50;33.45;;;5.80;99.90;;;;;;5072221;28;20118;-79
2022/03/22 06:29:00;;;;;;;43.45;32.80;;;5.90;99.90;;;;;;5080602;28;20051;-79
2022/03/22 06:31:27;;;;;;;43.40;32.67;;;6.00;99.90;;;;;;5076882;28;20044;-79
2022/03/22 06:33:53;;;;;;;43.10;32.25;;;6.10;99.90;;;;;;5076618;28;20044;-79
2022/03/22 06:36:19;;;;;;;42.40;32.08;;;6.30;99.90;;;;;;5057191;28;20380;-79
2022/03/22 06:38:45;;;;;;;40.53;30.92;;;6.50;99.90;;;;;;5072426;28;20411;-79
2022/03/22 06:41:10;;;;;;;39.45;30.58;;;6.80;99.90;;;;;;5056909;28;20063;-79
2022/03/22 06:43:36;;;;;;;42.42;30.30;;;7.00;99.90;;;;;;5056213;28;20106;-79
2022/03/22 06:46:02;;;;;;;38.78;30.10;;;7.20;99.90;;;;;;5071645;28;20411;-79
2022/03/22 06:48:28;;;;;;;41.38;29.90;;;7.50;99.90;;;;;;5056243;28;20120;-79
2022/03/22 06:50:54;;;;;;;41.90;30.58;;;7.80;99.90;;;;;;5071159;28;20078;-79
2022/03/22 06:53:19;;;;;;;40.60;30.90;;;8.00;99.90;;;;;;5075675;28;20036;-79
2022/03/22 06:55:46;;;;;;;41.47;30.92;;;8.30;99.90;;;;;;5076288;28;20039;-79
2022/03/22 06:58:12;;;;;;;40.30;30.90;;;8.60;99.90;;;;;;5085424;28;20478;-79
2022/03/22 07:00:38;;;;;;;38.60;30.77;;;8.80;99.90;;;;;;5060772;28;20036;-78
2022/03/22 07:03:04;;;;;;;41.72;31.02;;;9.20;99.90;;;;;;5057548;28;20036;-78
2022/03/22 07:05:31;;;;;;;40.55;30.02;;;9.40;99.90;;;;;;5070673;28;20039;-78
2022/03/22 07:07:57;;;;;;;35.40;28.77;;;9.50;99.90;;;;;;5072594;28;20036;-78
2022/03/22 07:10:24;;;;;;;40.22;30.08;;;9.80;99.90;;;;;;5059086;28;20041;-78
2022/03/22 07:12:52;;;;;;;38.40;29.45;;;9.90;99.90;;;;;;5070911;28;20067;-77
2022/03/22 07:15:38;;;;;;;37.75;29.33;;;10.10;99.90;;;;;;5070700;28;20033;-77
2022/03/22 07:18:12;;;;;;;35.38;28.17;;;10.40;99.90;;;;;;5070825;28;20434;-77
2022/03/22 07:20:39;;;;;;;37.35;29.52;;;10.60;99.90;;;;;;5056498;28;20497;-77
2022/03/22 07:23:05;;;;;;;38.00;30.48;;;10.70;99.90;;;;;;5072059;28;20376;-77
2022/03/22 07:25:33;;;;;;;37.53;29.30;;;10.80;99.90;;;;;;5070311;28;20064;-77
2022/03/22 07:27:59;;;;;;;40.42;30.23;;;10.60;99.90;;;;;;5055486;28;20060;-77
2022/03/22 07:30:25;;;;;;;38.53;30.65;;;10.40;99.90;;;;;;5046309;28;20398;-77
2022/03/22 07:32:51;;;;;;;41.22;32.25;;;10.30;99.90;;;;;;5071232;28;20037;-77
2022/03/22 07:35:19;;;;;;;39.72;31.38;;;10.10;99.90;;;;;;5054420;28;20040;-77
2022/03/22 07:37:45;;;;;;;39.47;30.55;;;10.00;99.90;;;;;;5068043;28;20036;-77
2022/03/22 07:40:12;;;;;;;40.33;30.67;;;10.10;99.90;;;;;;5045205;28;20028;-77
2022/03/22 07:42:38;;;;;;;37.40;30.15;;;10.30;99.90;;;;;;5071303;28;20039;-77
2022/03/22 07:45:09;;;;;;;37.70;30.35;;;10.40;99.90;;;;;;5054135;28;20041;-77
2022/03/22 07:47:36;;;;;;;37.63;30.60;;;10.60;99.90;;;;;;5070897;28;20051;-77
2022/03/22 07:53:05;;;;;;;37.25;30.52;;;11.20;99.90;;;;;;5077979;28;20198;-77
2022/03/22 07:55:43;;;;;;;38.28;30.25;;;11.50;99.90;;;;;;5063800;28;20142;-77
2022/03/22 07:58:09;;;;;;;39.40;29.50;;;11.60;99.90;;;;;;5070854;28;20040;-77
2022/03/22 08:00:41;;;;;;;38.28;30.10;;;12.00;99.40;;;;;;5060816;28;20037;-77
2022/03/22 08:03:10;;;;;;;36.17;30.23;;;12.20;99.90;;;;;;5057200;28;20403;-77
2022/03/22 08:05:37;;;;;;;37.30;30.35;;;12.80;99.60;;;;;;5070596;28;20036;-77
2022/03/22 08:08:04;;;;;;;39.05;30.25;;;13.00;99.90;;;;;;5070417;28;20167;-77
2022/03/22 08:10:31;;;;;;;35.13;28.35;;;13.20;99.10;;;;;;5071452;28;20051;-77
2022/03/22 08:12:59;;;;;;;42.03;30.45;;;13.20;98.20;;;;;;5070020;28;20035;-77
2022/03/22 08:15:25;;;;;;;39.78;30.70;;;13.20;97.20;;;;;;5070390;28;20469;-80
2022/03/22 08:17:52;;;;;;;39.45;30.90;;;13.10;97.80;;;;;;5055434;28;20048;-78
2022/03/22 08:20:17;;;;;;;37.85;29.45;;;13.10;98.10;;;;;;5052869;28;20500;-78
2022/03/22 08:22:54;;;;;;;37.42;29.92;;;13.10;96.60;;;;;;5070744;28;20044;-78
2022/03/22 08:25:38;;;;;;;38.20;30.58;;;13.00;98.10;;;;;;5076166;28;20036;-78
2022/03/22 08:28:06;;;;;;;36.47;30.17;;;13.20;98.60;;;;;;5089691;28;20130;-78
2022/03/22 08:30:33;;;;;;;34.75;28.90;;;13.40;98.30;;;;;;5073135;28;20143;-78
2022/03/22 08:33:03;;;;;;;34.28;27.90;;;13.50;97.70;;;;;;5088802;28;20078;-78
2022/03/22 08:35:29;;;;;;;36.45;28.65;;;13.60;94.10;;;;;;5071604;28;20040;-79
2022/03/22 08:37:56;;;;;;;37.22;27.92;;;13.70;95.20;;;;;;5071647;28;20487;-78
2022/03/22 08:40:23;;;;;;;37.00;27.60;;;13.80;95.80;;;;;;5070707;28;20407;-78
2022/03/22 08:42:52;;;;;;;36.08;28.00;;;13.80;94.80;;;;;;5080923;28;20533;-78
2022/03/22 08:45:26;;;;;;;35.17;27.75;;;14.10;96.30;;;;;;5089617;28;20287;-78
2022/03/22 08:47:53;;;;;;;32.35;27.13;;;14.20;94.90;;;;;;5062941;28;20039;-78
2022/03/22 08:50:21;;;;;;;34.13;27.35;;;14.20;94.50;;;;;;5068765;28;20037;-79
2022/03/22 08:52:48;;;;;;;34.28;27.08;;;14.30;93.90;;;;;;5085949;28;20040;-78
2022/03/22 08:55:17;;;;;;;34.85;27.40;;;14.50;94.50;;;;;;5066756;28;20042;-77
2022/03/22 08:57:44;;;;;;;32.85;26.40;;;14.60;92.10;;;;;;5055490;28;20039;-77
2022/03/22 09:00:11;;;;;;;32.28;27.23;;;14.90;91.60;;;;;;5070997;28;20044;-77
2022/03/22 09:02:38;;;;;;;33.35;27.92;;;15.10;92.60;;;;;;5054224;28;20040;-78
2022/03/22 09:08:10;;;;;;;33.15;27.20;;;15.20;91.20;;;;;;5033512;28;20179;-78
2022/03/22 09:10:36;;;;;;;30.67;25.80;;;15.60;91.10;;;;;;4999944;28;20042;-79
2022/03/22 09:13:04;;;;;;;31.73;25.38;;;15.80;84.10;;;;;;5025994;28;20049;-79
2022/03/22 09:15:30;;;;;;;24.67;19.40;;;16.00;80.40;;;;;;5071470;28;20090;-79
2022/03/22 09:17:57;;;;;;;26.58;19.73;;;16.40;77.70;;;;;;5094528;28;20088;-80
2022/03/22 09:20:25;;;;;;;26.30;18.77;;;16.50;63.90;;;;;;5082697;28;20052;-80
2022/03/22 09:22:51;;;;;;;25.92;20.20;;;16.60;62.20;;;;;;5054756;28;20081;-80
2022/03/22 09:25:20;;;;;;;29.83;19.58;;;16.70;59.30;;;;;;5051439;28;20037;-80
2022/03/22 09:27:46;;;;;;;24.05;19.42;;;16.70;60.20;;;;;;5064652;28;20041;-80
2022/03/22 09:30:12;;;;;;;25.35;20.05;;;17.00;57.60;;;;;;5057657;28;20411;-79
2022/03/22 09:32:40;;;;;;;26.25;19.65;;;17.10;53.60;;;;;;5074338;28;20048;-80
2022/03/22 09:35:10;;;;;;;26.10;19.63;;;17.10;55.10;;;;;;5057448;28;20476;-80
2022/03/22 09:37:43;;;;;;;24.13;18.92;;;17.30;55.20;;;;;;5057839;28;20476;-80
2022/03/22 09:40:11;;;;;;;26.48;19.27;;;17.40;54.20;;;;;;5057047;28;20055;-78
2022/03/22 09:42:38;;;;;;;25.35;19.98;;;17.50;54.70;;;;;;5041262;28;20037;-78
2022/03/22 09:45:08;;;;;;;24.40;19.75;;;17.60;53.20;;;;;;5087257;28;20861;-78
2022/03/22 09:47:38;;;;;;;26.50;19.50;;;17.70;55.30;;;;;;5074914;28;20048;-78
2022/03/22 09:50:08;;;;;;;30.05;21.15;;;17.90;50.80;;;;;;5090886;28;20044;-78
2022/03/22 09:52:38;;;;;;;26.88;20.42;;;17.80;51.10;;;;;;5091006;28;20044;-78
2022/03/22 09:55:06;;;;;;;26.70;20.08;;;17.80;50.90;;;;;;5090093;28;20613;-78
2022/03/22 09:57:32;;;;;;;27.67;20.20;;;17.70;50.00;;;;;;5057357;28;20040;-78
2022/03/22 09:59:58;;;;;;;26.10;19.85;;;17.60;49.10;;;;;;5057052;28;20036;-78
2022/03/22 10:02:29;;;;;;;25.42;20.30;;;17.50;49.60;;;;;;5052437;28;20037;-78
2022/03/22 10:04:55;;;;;;;27.27;19.52;;;17.50;50.00;;;;;;5073420;28;20067;-77
2022/03/22 10:07:23;;;;;;;27.95;19.27;;;17.40;48.80;;;;;;5073790;28;20076;-77
2022/03/22 10:10:00;;;;;;;28.67;19.92;;;17.30;49.00;;;;;;5056118;28;20056;-77
2022/03/22 10:12:35;;;;;;;27.95;20.20;;;17.30;51.30;;;;;;5040545;28;20072;-77
2022/03/22 10:15:12;;;;;;;26.90;20.05;;;17.40;52.30;;;;;;5074386;28;20483;-77
2022/03/22 10:17:38;;;;;;;26.50;19.42;;;17.50;49.80;;;;;;5081897;28;20539;-77
2022/03/22 10:20:06;;;;;;;25.02;19.60;;;17.60;50.30;;;;;;5056645;28;20059;-77
2022/03/22 10:22:34;;;;;;;27.45;19.48;;;17.50;50.40;;;;;;5073121;28;20117;-77
2022/03/22 10:25:03;;;;;;;27.00;19.77;;;17.60;49.90;;;;;;5075809;28;20050;-77
2022/03/22 10:27:30;;;;;;;26.35;19.83;;;17.60;51.50;;;;;;5072626;28;20040;-77
2022/03/22 10:29:57;;;;;;;26.13;20.13;;;17.70;50.40;;;;;;5056384;28;20072;-77
2022/03/22 10:32:31;;;;;;;26.75;20.58;;;17.70;50.10;;;;;;5056542;28;20114;-77
2022/03/22 10:35:10;;;;;;;26.00;19.67;;;17.80;50.80;;;;;;5072909;28;20041;-77
2022/03/22 10:37:37;;;;;;;27.08;19.38;;;17.90;51.90;;;;;;5056914;28;20120;-77
2022/03/22 10:40:18;;;;;;;26.85;20.02;;;17.90;49.90;;;;;;5072303;28;20042;-77
2022/03/22 10:42:44;;;;;;;27.58;20.83;;;18.00;50.90;;;;;;5056516;28;20119;-77
2022/03/22 10:45:10;;;;;;;28.77;20.42;;;18.10;50.60;;;;;;5056177;28;20040;-77
2022/03/22 10:47:35;;;;;;;26.00;19.88;;;18.10;49.60;;;;;;5056279;28;20536;-77
2022/03/22 10:50:05;;;;;;;26.98;20.30;;;18.20;52.70;;;;;;5056090;28;20051;-77
2022/03/22 10:52:40;;;;;;;25.33;19.85;;;18.20;48.90;;;;;;5056360;28;20101;-78
2022/03/22 10:55:06;;;;;;;26.70;20.40;;;18.20;49.30;;;;;;5091706;28;20119;-78
2022/03/22 10:57:37;;;;;;;27.95;20.17;;;18.30;49.20;;;;;;5088250;28;20039;-78
2022/03/22 11:00:07;;;;;;;27.55;20.48;;;18.30;50.10;;;;;;5085267;28;20044;-78
2022/03/22 11:02:35;;;;;;;26.73;19.75;;;18.50;50.70;;;;;;5057580;28;20112;-78
2022/03/22 11:05:04;;;;;;;26.45;20.52;;;18.60;50.50;;;;;;5055763;28;20040;-78
2022/03/22 11:07:39;;;;;;;28.90;21.42;;;18.60;49.40;;;;;;5059622;28;20530;-78
2022/03/22 11:10:06;;;;;;;30.27;21.80;;;18.70;50.20;;;;;;5075693;28;20067;-78
2022/03/22 11:12:33;;;;;;;25.48;20.42;;;18.80;51.00;;;;;;5055966;28;20037;-78
2022/03/22 11:15:00;;;;;;;28.70;21.33;;;19.00;48.30;;;;;;5055585;28;20055;-78
2022/03/22 11:17:28;;;;;;;25.67;21.05;;;19.10;49.30;;;;;;5070505;28;20423;-78
2022/03/22 11:19:59;;;;;;;24.52;20.38;;;19.30;50.30;;;;;;5071247;28;20044;-78
2022/03/22 11:22:25;;;;;;;27.77;20.33;;;19.40;48.30;;;;;;5060397;28;20403;-78
2022/03/22 11:24:52;;;;;;;28.35;22.15;;;19.40;47.10;;;;;;5075577;28;20044;-78
2022/03/22 11:27:29;;;;;;;25.70;20.15;;;19.40;46.10;;;;;;5071464;28;20056;-77
2022/03/22 11:29:56;;;;;;;30.13;20.50;;;19.40;49.00;;;;;;5071972;28;20052;-77
2022/03/22 11:35:14;;;;;;;27.20;20.00;;;19.40;46.80;;;;;;5083116;28;20090;-78
2022/03/22 11:37:40;;;;;;;25.88;19.95;;;19.40;45.60;;;;;;5071981;28;20158;-78
2022/03/22 11:43:08;;;;;;;29.20;20.55;;;19.40;46.30;;;;;;5089638;28;20039;-78
2022/03/22 11:45:51;;;;;;;28.00;19.75;;;19.50;45.50;;;;;;5090926;28;20036;-78
2022/03/22 11:48:18;;;;;;;29.02;20.88;;;19.60;46.90;;;;;;5072096;28;20055;-78
2022/03/22 11:50:47;;;;;;;26.58;20.42;;;19.60;45.30;;;;;;5038517;28;20048;-78
2022/03/22 11:53:18;;;;;;;31.73;22.05;;;19.50;48.10;;;;;;5042077;28;20538;-78
2022/03/22 11:55:48;;;;;;;26.42;20.77;;;19.60;46.20;;;;;;5091607;28;20399;-78
2022/03/22 11:58:14;;;;;;;27.25;21.15;;;19.70;47.20;;;;;;5092352;28;20391;-78
2022/03/22 12:00:56;;;;;;;30.13;21.58;;;19.70;46.70;;;;;;5075357;28;20093;-78
2022/03/22 12:03:28;;;;;;;27.70;20.77;;;19.80;48.00;;;;;;5092258;28;20603;-78
2022/03/22 12:05:54;;;;;;;28.63;21.83;;;19.90;46.60;;;;;;5075412;28;20047;-78
2022/03/22 12:08:20;;;;;;;27.80;21.38;;;19.90;49.10;;;;;;5091399;28;20039;-78
2022/03/22 12:10:54;;;;;;;29.15;21.15;;;20.00;47.40;;;;;;5072685;28;20123;-78
2022/03/22 12:13:20;;;;;;;28.13;20.55;;;20.00;46.40;;;;;;5078266;28;20499;-78
2022/03/22 12:15:47;;;;;;;30.08;20.77;;;20.00;45.70;;;;;;5058983;28;20043;-77
2022/03/22 12:18:13;;;;;;;27.60;21.10;;;20.10;45.60;;;;;;5060743;28;20523;-77
2022/03/22 12:20:42;;;;;;;29.80;21.75;;;20.10;48.10;;;;;;5075905;28;20094;-77
2022/03/22 12:23:08;;;;;;;27.20;21.40;;;20.00;45.70;;;;;;5055518;28;20036;-77
2022/03/22 12:25:36;;;;;;;27.52;20.63;;;20.00;45.30;;;;;;5066684;28;20040;-77
2022/03/22 12:28:08;;;;;;;29.23;21.25;;;20.00;45.10;;;;;;5071543;28;20546;-77
2022/03/22 12:30:35;;;;;;;;;;;19.90;45.20;;;;;;5083038;28;20044;-77
2022/03/22 12:33:21;;;;;;;28.77;20.17;;;19.80;46.50;;;;;;5090960;28;19994;-77
2022/03/22 12:35:48;;;;;;;30.55;20.85;;;19.80;46.20;;;;;;5082685;28;20038;-77
2022/03/22 12:38:16;;;;;;;26.67;19.60;;;19.80;45.30;;;;;;5077299;28;20403;-77
2022/03/22 12:40:43;;;;;;;27.10;20.13;;;19.90;48.10;;;;;;5071335;28;20032;-77
2022/03/22 12:43:12;;;;;;;27.92;20.00;;;19.80;46.40;;;;;;5071648;28;20048;-77
2022/03/22 12:45:42;;;;;;;31.50;20.13;;;19.80;44.70;;;;;;5075160;28;20036;-77
2022/03/22 12:48:08;;;;;;;29.15;20.10;;;19.80;45.50;;;;;;5075431;28;20067;-77
2022/03/22 12:50:34;;;;;;;27.67;20.05;;;19.80;45.50;;;;;;5074819;28;20068;-77
2022/03/22 12:52:59;;;;;;;27.17;20.25;;;19.80;47.30;;;;;;5070545;28;20040;-78
2022/03/22 12:55:27;;;;;;;26.85;20.27;;;19.80;45.80;;;;;;5074212;28;20085;-77
2022/03/22 12:57:56;;;;;;;27.73;20.70;;;19.90;46.70;;;;;;5088655;28;20031;-77
2022/03/22 13:00:35;;;;;;;28.88;20.65;;;19.90;44.60;;;;;;5090426;28;20043;-78
2022/03/22 13:03:14;;;;;;;28.17;20.45;;;19.80;45.10;;;;;;5090784;28;20071;-78
2022/03/22 13:05:50;;;;;;;29.23;20.70;;;19.80;44.80;;;;;;5092454;28;20036;-78
2022/03/22 13:08:19;;;;;;;31.00;21.83;;;19.70;44.80;;;;;;5089112;28;20066;-78
2022/03/22 13:15:01;;;;;;;30.13;21.60;;;19.80;46.10;;;;;;5078388;28;20123;-78